createdAt,value
2022-11-25T00:01:13.129Z,61.00
2022-11-25T00:03:47.542Z,61.14
2022-11-25T00:06:22.384Z,61.07
2022-11-25T00:08:55.753Z,60.83
2022-11-25T00:11:37.278Z,60.91
2022-11-25T00:14:13.469Z,60.66
2022-11-25T00:16:49.565Z,60.57
2022-11-25T00:19:25.539Z,60.63
2022-11-25T00:21:58.733Z,60.57
2022-11-25T00:24:35.165Z,60.81
2022-11-25T00:27:07.909Z,60.43
2022-11-25T00:29:41.239Z,60.54
2022-11-25T00:32:14.419Z,60.75
2022-11-25T00:34:48.095Z,60.55
2022-11-25T00:37:22.661Z,60.66
2022-11-25T00:39:55.813Z,60.77
2022-11-25T00:42:45.603Z,60.94
2022-11-25T00:45:20.160Z,61.05
2022-11-25T00:47:51.907Z,61.11
2022-11-25T00:50:24.443Z,60.72
2022-11-25T00:52:58.123Z,60.88
2022-11-25T00:55:52.513Z,60.90
2022-11-25T00:58:25.713Z,60.97
2022-11-25T01:01:03.553Z,61.01
2022-11-25T01:03:37.432Z,61.01
2022-11-25T01:06:11.640Z,61.03
2022-11-25T01:08:43.623Z,61.00
2022-11-25T01:11:18.421Z,61.04
2022-11-25T01:13:57.871Z,61.03
2022-11-25T01:16:36.133Z,61.18
2022-11-25T01:19:10.308Z,61.26
2022-11-25T01:21:44.795Z,61.24
2022-11-25T01:24:19.604Z,61.31
2022-11-25T01:26:52.323Z,61.44
2022-11-25T01:29:26.112Z,61.53
2022-11-25T01:31:59.535Z,61.50
2022-11-25T01:34:33.452Z,61.19
2022-11-25T01:37:10.172Z,61.06
2022-11-25T01:39:44.639Z,61.22
2022-11-25T01:42:17.495Z,61.12
2022-11-25T01:45:25.573Z,61.19
2022-11-25T01:48:06.495Z,61.21
2022-11-25T01:50:39.790Z,61.12
2022-11-25T01:53:16.231Z,61.20
2022-11-25T01:55:53.508Z,61.16
2022-11-25T01:58:29.133Z,61.37
2022-11-25T02:01:07.386Z,61.25
2022-11-25T02:03:41.815Z,61.33
2022-11-25T02:06:19.539Z,61.22
2022-11-25T02:08:54.860Z,61.43
2022-11-25T02:11:32.688Z,61.50
2022-11-25T02:14:05.745Z,61.39
2022-11-25T02:16:39.864Z,61.57
2022-11-25T02:19:24.451Z,61.57
2022-11-25T02:22:03.830Z,61.64
2022-11-25T02:24:40.031Z,61.44
2022-11-25T02:27:13.692Z,61.58
2022-11-25T02:29:47.201Z,61.72
2022-11-25T02:32:24.549Z,61.52
2022-11-25T02:34:56.708Z,61.75
2022-11-25T02:37:32.113Z,61.78
2022-11-25T02:40:06.203Z,61.84
2022-11-25T02:42:42.737Z,61.86
2022-11-25T02:45:16.223Z,61.90
2022-11-25T02:47:49.453Z,61.99
2022-11-25T02:50:22.699Z,61.95
2022-11-25T02:52:58.359Z,61.96
2022-11-25T02:55:31.822Z,62.11
2022-11-25T02:58:05.642Z,62.22
2022-11-25T03:00:38.467Z,62.16
2022-11-25T03:03:12.354Z,62.21
2022-11-25T03:05:44.684Z,62.31
2022-11-25T03:08:20.321Z,62.17
2022-11-25T03:10:53.674Z,62.36
2022-11-25T03:13:26.103Z,62.07
2022-11-25T03:16:00.892Z,61.93
2022-11-25T03:18:37.020Z,62.07
2022-11-25T03:21:09.317Z,61.90
2022-11-25T03:23:41.581Z,62.05
2022-11-25T03:26:14.397Z,61.97
2022-11-25T03:28:47.764Z,61.88
2022-11-25T03:31:21.293Z,61.93
2022-11-25T03:33:57.015Z,61.98
2022-11-25T03:36:30.211Z,62.04
2022-11-25T03:39:03.662Z,62.04
2022-11-25T03:41:37.129Z,61.75
2022-11-25T03:44:09.766Z,61.87
2022-11-25T03:46:43.831Z,61.97
2022-11-25T03:49:17.364Z,61.98
2022-11-25T03:51:50.682Z,61.84
2022-11-25T03:54:23.869Z,61.86
2022-11-25T03:56:56.315Z,61.87
2022-11-25T03:59:30.503Z,62.01
2022-11-25T04:02:05.615Z,61.82
2022-11-25T04:04:39.355Z,61.80
2022-11-25T04:07:14.233Z,61.86
2022-11-25T04:09:47.769Z,61.87
2022-11-25T04:12:39.885Z,61.79
2022-11-25T04:15:14.479Z,61.64
2022-11-25T04:17:47.259Z,61.74
2022-11-25T04:20:19.649Z,61.68
2022-11-25T04:22:52.007Z,61.63
2022-11-25T04:25:26.364Z,61.36
2022-11-25T04:27:58.889Z,61.61
2022-11-25T04:30:32.097Z,61.73
2022-11-25T04:33:06.216Z,61.59
2022-11-25T04:35:40.346Z,61.44
2022-11-25T04:38:13.135Z,61.38
2022-11-25T04:40:49.199Z,61.64
2022-11-25T04:43:21.955Z,61.76
2022-11-25T04:46:13.633Z,61.87
2022-11-25T04:48:51.811Z,61.93
2022-11-25T04:51:25.096Z,61.94
2022-11-25T04:53:57.120Z,61.97
2022-11-25T04:56:30.898Z,61.82
2022-11-25T04:59:22.726Z,61.81
2022-11-25T05:01:54.718Z,61.73
2022-11-25T05:04:29.465Z,61.94
2022-11-25T05:07:02.169Z,61.79
2022-11-25T05:09:34.752Z,61.69
2022-11-25T05:12:08.200Z,61.69
2022-11-25T05:14:42.244Z,61.96
2022-11-25T05:17:18.636Z,62.22
2022-11-25T05:19:53.973Z,62.11
2022-11-25T05:22:29.434Z,62.19
2022-11-25T05:25:03.630Z,62.09
2022-11-25T05:27:38.740Z,62.08
2022-11-25T05:30:14.312Z,62.16
2022-11-25T05:32:50.842Z,61.86
2022-11-25T05:35:23.699Z,62.12
2022-11-25T05:37:56.036Z,61.81
2022-11-25T05:40:30.005Z,62.05
2022-11-25T05:43:05.715Z,62.10
2022-11-25T05:45:37.593Z,62.20
2022-11-25T05:48:11.219Z,61.84
2022-11-25T05:50:44.365Z,61.90
2022-11-25T05:53:18.137Z,61.95
2022-11-25T05:55:59.545Z,62.03
2022-11-25T05:58:34.901Z,61.92
2022-11-25T06:01:10.897Z,62.06
2022-11-25T06:03:43.654Z,62.16
2022-11-25T06:06:17.445Z,61.89
2022-11-25T06:08:50.552Z,61.92
2022-11-25T06:11:26.165Z,62.05
2022-11-25T06:14:00.418Z,62.12
2022-11-25T06:16:35.515Z,61.98
2022-11-25T06:19:09.239Z,62.07
2022-11-25T06:21:41.246Z,62.20
2022-11-25T06:24:15.436Z,62.09
2022-11-25T06:26:49.460Z,61.93
2022-11-25T06:29:22.546Z,61.70
2022-11-25T06:31:57.623Z,62.08
2022-11-25T06:34:31.875Z,61.90
2022-11-25T06:37:06.646Z,61.91
2022-11-25T06:39:39.291Z,62.12
2022-11-25T06:42:12.133Z,62.38
2022-11-25T06:44:45.395Z,62.38
2022-11-25T06:47:19.460Z,62.18
2022-11-25T06:49:53.446Z,62.08
2022-11-25T06:52:26.275Z,62.06
2022-11-25T06:54:58.590Z,62.32
2022-11-25T06:57:31.853Z,62.07
2022-11-25T07:00:07.137Z,61.81
2022-11-25T07:02:46.702Z,61.57
2022-11-25T07:05:21.140Z,61.59
2022-11-25T07:07:54.034Z,61.84
2022-11-25T07:10:28.892Z,62.00
2022-11-25T07:13:04.423Z,62.03
2022-11-25T07:15:40.508Z,62.23
2022-11-25T07:18:14.865Z,62.19
2022-11-25T07:20:49.630Z,61.94
2022-11-25T07:23:22.671Z,61.90
2022-11-25T07:25:58.406Z,61.91
2022-11-25T07:28:31.040Z,62.02
2022-11-25T07:31:29.073Z,62.12
2022-11-25T07:34:05.198Z,62.04
2022-11-25T07:36:38.651Z,62.01
2022-11-25T07:39:16.725Z,62.09
2022-11-25T07:41:50.385Z,62.29
2022-11-25T07:44:22.960Z,62.14
2022-11-25T07:46:55.591Z,62.12
2022-11-25T07:49:29.045Z,61.86
2022-11-25T07:52:05.075Z,61.46
2022-11-25T07:54:38.092Z,61.52
2022-11-25T07:57:10.427Z,61.93
2022-11-25T07:59:43.536Z,61.87
2022-11-25T08:02:15.958Z,61.70
2022-11-25T08:04:48.281Z,61.32
2022-11-25T08:07:21.978Z,61.38
2022-11-25T08:09:55.284Z,61.61
2022-11-25T08:12:28.744Z,61.92
2022-11-25T08:15:02.269Z,61.78
2022-11-25T08:17:37.639Z,61.40
2022-11-25T08:20:12.187Z,61.74
2022-11-25T08:22:44.192Z,61.80
2022-11-25T08:25:17.022Z,61.60
2022-11-25T08:27:49.353Z,61.51
2022-11-25T08:30:26.014Z,61.51
2022-11-25T08:32:58.603Z,61.68
2022-11-25T08:35:30.702Z,61.64
2022-11-25T08:38:05.186Z,61.60
2022-11-25T08:40:37.928Z,61.61
2022-11-25T08:43:10.940Z,61.63
2022-11-25T08:45:44.846Z,61.35
2022-11-25T08:48:18.550Z,61.48
2022-11-25T08:50:53.385Z,61.52
2022-11-25T08:53:26.069Z,61.54
2022-11-25T08:55:58.541Z,61.40
2022-11-25T08:58:30.596Z,61.36
2022-11-25T09:01:10.485Z,61.39
2022-11-25T09:03:45.613Z,61.25
2022-11-25T09:06:20.252Z,61.05
2022-11-25T09:08:52.235Z,61.07
2022-11-25T09:11:25.113Z,61.12
2022-11-25T09:13:57.731Z,60.97
2022-11-25T09:16:29.880Z,60.80
2022-11-25T09:19:07.196Z,60.74
2022-11-25T09:21:39.895Z,60.56
2022-11-25T09:24:12.634Z,60.58
2022-11-25T09:26:45.898Z,60.30
2022-11-25T09:29:22.391Z,60.32
2022-11-25T09:31:58.359Z,60.42
2022-11-25T09:34:34.317Z,60.49
2022-11-25T09:37:11.986Z,60.24
2022-11-25T09:39:48.196Z,60.03
2022-11-25T09:42:51.732Z,59.79
2022-11-25T09:45:47.210Z,59.66
2022-11-25T09:48:36.445Z,59.53
2022-11-25T09:51:15.432Z,59.31
2022-11-25T09:53:51.652Z,59.31
2022-11-25T09:56:31.007Z,59.61
2022-11-25T09:59:06.687Z,59.40
2022-11-25T10:01:49.049Z,59.24
2022-11-25T10:04:28.157Z,58.92
2022-11-25T10:07:03.075Z,58.86
2022-11-25T10:09:38.671Z,58.75
2022-11-25T10:12:23.464Z,58.77
2022-11-25T10:14:59.731Z,58.39
2022-11-25T10:17:37.102Z,58.38
2022-11-25T10:20:21.483Z,58.50
2022-11-25T10:22:56.520Z,58.74
2022-11-25T10:25:31.685Z,58.54
2022-11-25T10:28:05.692Z,58.44
2022-11-25T10:30:45.194Z,58.24
2022-11-25T10:33:23.074Z,58.35
2022-11-25T10:35:57.701Z,58.31
2022-11-25T10:38:36.471Z,58.22
2022-11-25T10:41:08.901Z,58.27
2022-11-25T10:43:44.653Z,58.59
2022-11-25T10:46:22.600Z,58.18
2022-11-25T10:49:07.329Z,58.05
2022-11-25T10:51:44.335Z,58.13
2022-11-25T10:54:26.894Z,58.01
2022-11-25T10:57:04.317Z,57.76
2022-11-25T10:59:38.788Z,57.75
2022-11-25T11:02:21.561Z,57.45
2022-11-25T11:04:57.482Z,57.56
2022-11-25T11:07:30.624Z,57.77
2022-11-25T11:10:18.406Z,57.41
2022-11-25T11:13:02.269Z,57.00
2022-11-25T11:15:47.389Z,56.94
2022-11-25T11:18:29.559Z,57.03
2022-11-25T11:21:03.442Z,56.74
2022-11-25T11:23:52.749Z,57.16
2022-11-25T11:26:29.895Z,56.84
2022-11-25T11:29:08.492Z,57.01
2022-11-25T11:31:49.754Z,57.22
2022-11-25T11:35:00.272Z,57.21
2022-11-25T11:37:44.749Z,56.96
2022-11-25T11:40:26.479Z,57.18
2022-11-25T11:43:26.352Z,57.09
2022-11-25T11:46:11.642Z,57.38
2022-11-25T11:48:53.416Z,57.39
2022-11-25T11:51:34.864Z,57.50
2022-11-25T11:54:09.728Z,57.39
2022-11-25T11:56:43.990Z,57.21
2022-11-25T11:59:50.815Z,57.21
2022-11-25T12:02:42.027Z,56.95
2022-11-25T12:05:23.527Z,57.12
2022-11-25T12:08:05.116Z,57.19
2022-11-25T12:10:41.329Z,56.93
2022-11-25T12:13:20.068Z,56.56
2022-11-25T12:15:57.558Z,56.61
2022-11-25T12:18:46.611Z,56.64
2022-11-25T12:21:29.731Z,56.65
2022-11-25T12:24:07.970Z,56.72
2022-11-25T12:26:47.100Z,56.76
2022-11-25T12:29:24.282Z,56.63
2022-11-25T12:32:00.260Z,56.54
2022-11-25T12:34:37.630Z,56.61
2022-11-25T12:37:15.228Z,56.46
2022-11-25T12:39:49.815Z,56.51
2022-11-25T12:42:28.611Z,56.39
2022-11-25T12:45:06.603Z,56.33
2022-11-25T12:47:40.345Z,56.45
2022-11-25T12:50:17.470Z,56.23
2022-11-25T12:52:59.511Z,56.50
2022-11-25T12:55:35.377Z,56.60
2022-11-25T12:58:33.114Z,56.52
2022-11-25T13:01:48.662Z,56.76
2022-11-25T13:04:31.241Z,56.88
2022-11-25T13:07:30.675Z,57.07
2022-11-25T13:10:44.299Z,57.14
2022-11-25T13:13:24.905Z,57.12
2022-11-25T13:15:59.059Z,57.28
2022-11-25T13:18:34.043Z,57.21
2022-11-25T13:21:13.877Z,57.14
2022-11-25T13:23:51.947Z,57.24
2022-11-25T13:26:50.208Z,57.46
2022-11-25T13:30:03.920Z,57.34
2022-11-25T13:32:39.007Z,57.32
2022-11-25T13:35:50.851Z,57.20
2022-11-25T13:38:56.118Z,57.27
2022-11-25T13:41:45.451Z,57.38
2022-11-25T13:44:30.896Z,57.36
2022-11-25T13:47:37.241Z,57.31
2022-11-25T13:50:41.973Z,57.22
2022-11-25T13:53:30.301Z,57.33
2022-11-25T13:56:18.162Z,57.33
2022-11-25T13:59:23.016Z,57.36
2022-11-25T14:02:46.695Z,57.47
2022-11-25T14:05:51.292Z,57.66
2022-11-25T14:08:31.218Z,57.74
2022-11-25T14:11:24.357Z,57.75
2022-11-25T14:14:08.414Z,57.90
2022-11-25T14:16:51.894Z,57.78
2022-11-25T14:19:52.073Z,57.85
2022-11-25T14:22:40.750Z,57.93
2022-11-25T14:25:22.725Z,58.01
2022-11-25T14:28:20.376Z,58.11
2022-11-25T14:30:56.023Z,58.15
2022-11-25T14:33:32.570Z,58.28
2022-11-25T14:36:09.404Z,58.00
2022-11-25T14:38:46.802Z,57.83
2022-11-25T14:41:21.072Z,57.85
2022-11-25T14:43:57.281Z,57.68
2022-11-25T14:46:31.454Z,57.88
2022-11-25T14:49:07.778Z,58.14
2022-11-25T14:51:50.960Z,58.03
2022-11-25T14:54:24.100Z,58.09
2022-11-25T14:56:56.041Z,58.02
2022-11-25T14:59:35.001Z,58.21
2022-11-25T15:02:09.298Z,58.26
2022-11-25T15:04:45.376Z,58.48
2022-11-25T15:07:30.957Z,58.08
2022-11-25T15:10:08.518Z,58.36
2022-11-25T15:12:46.322Z,58.42
2022-11-25T15:15:21.155Z,58.50
2022-11-25T15:17:57.557Z,58.36
2022-11-25T15:20:34.614Z,58.48
2022-11-25T15:23:07.429Z,58.87
2022-11-25T15:25:52.496Z,58.69
2022-11-25T15:28:26.496Z,58.60
2022-11-25T15:31:01.888Z,58.57
2022-11-25T15:33:35.713Z,58.38
2022-11-25T15:36:08.990Z,58.43
2022-11-25T15:38:45.728Z,58.33
2022-11-25T15:41:26.380Z,58.46
2022-11-25T15:43:59.720Z,58.53
2022-11-25T15:46:34.543Z,58.52
2022-11-25T15:49:18.055Z,58.60
2022-11-25T15:51:56.964Z,58.67
2022-11-25T15:54:32.723Z,58.73
2022-11-25T15:57:21.056Z,58.85
2022-11-25T16:00:11.741Z,58.88
2022-11-25T16:02:53.083Z,58.97
2022-11-25T16:05:52.658Z,59.27
2022-11-25T16:08:42.109Z,59.25
2022-11-25T16:11:19.324Z,59.16
2022-11-25T16:13:52.576Z,59.24
2022-11-25T16:16:28.981Z,59.37
2022-11-25T16:19:23.199Z,59.38
2022-11-25T16:22:04.436Z,59.22
2022-11-25T16:24:50.579Z,59.35
2022-11-25T16:27:25.298Z,59.12
2022-11-25T16:29:59.144Z,59.32
2022-11-25T16:32:34.680Z,59.49
2022-11-25T16:35:17.383Z,59.29
2022-11-25T16:37:50.181Z,58.94
2022-11-25T16:40:24.264Z,59.19
2022-11-25T16:42:57.226Z,59.09
2022-11-25T16:45:32.813Z,58.77
2022-11-25T16:48:18.366Z,59.02
2022-11-25T16:50:52.584Z,59.19
2022-11-25T16:53:25.318Z,59.30
2022-11-25T16:55:59.099Z,59.46
2022-11-25T16:58:33.563Z,59.76
2022-11-25T17:01:11.678Z,59.77
2022-11-25T17:03:44.098Z,59.78
2022-11-25T17:06:22.525Z,59.83
2022-11-25T17:08:55.479Z,59.89
2022-11-25T17:11:33.980Z,60.04
2022-11-25T17:14:12.936Z,60.01
2022-11-25T17:16:46.673Z,59.98
2022-11-25T17:19:19.930Z,60.09
2022-11-25T17:21:53.472Z,60.17
2022-11-25T17:24:27.983Z,60.21
2022-11-25T17:27:04.070Z,60.30
2022-11-25T17:29:40.309Z,60.27
2022-11-25T17:32:16.403Z,60.30
2022-11-25T17:34:48.932Z,60.10
2022-11-25T17:37:25.272Z,60.25
2022-11-25T17:39:58.896Z,60.06
2022-11-25T17:42:33.769Z,60.24
2022-11-25T17:45:14.599Z,60.02
2022-11-25T17:47:51.253Z,60.02
2022-11-25T17:50:27.132Z,60.14
2022-11-25T17:53:02.632Z,60.22
2022-11-25T17:55:36.294Z,60.12
2022-11-25T17:58:10.650Z,60.38
2022-11-25T18:00:44.983Z,60.58
2022-11-25T18:03:18.736Z,60.38
2022-11-25T18:05:51.712Z,60.03
2022-11-25T18:08:25.757Z,60.09
2022-11-25T18:11:02.595Z,60.13
2022-11-25T18:13:39.912Z,60.07
2022-11-25T18:16:13.103Z,60.43
2022-11-25T18:18:46.394Z,60.32
2022-11-25T18:21:20.171Z,60.03
2022-11-25T18:23:54.065Z,60.07
2022-11-25T18:26:26.461Z,60.20
2022-11-25T18:28:59.643Z,60.51
2022-11-25T18:31:34.326Z,60.60
2022-11-25T18:34:16.366Z,60.88
2022-11-25T18:36:51.250Z,60.53
2022-11-25T18:39:23.720Z,60.45
2022-11-25T18:41:59.954Z,60.52
2022-11-25T18:44:37.815Z,60.48
2022-11-25T18:47:13.179Z,60.47
2022-11-25T18:49:53.898Z,60.49
2022-11-25T18:52:30.168Z,60.49
2022-11-25T18:55:06.478Z,60.58
2022-11-25T18:57:41.494Z,60.60
2022-11-25T19:00:33.822Z,60.36
2022-11-25T19:03:10.647Z,60.62
2022-11-25T19:05:43.284Z,60.59
2022-11-25T19:08:18.649Z,60.20
2022-11-25T19:10:52.096Z,60.41
2022-11-25T19:13:30.001Z,60.29
2022-11-25T19:16:06.210Z,60.16
2022-11-25T19:18:38.439Z,60.17
2022-11-25T19:21:17.457Z,60.23
2022-11-25T19:23:50.508Z,60.06
2022-11-25T19:26:27.697Z,60.14
2022-11-25T19:29:04.694Z,60.23
2022-11-25T19:31:38.051Z,60.41
2022-11-25T19:34:11.336Z,60.22
2022-11-25T19:36:43.888Z,60.20
2022-11-25T19:39:18.927Z,60.43
2022-11-25T19:41:50.786Z,60.59
2022-11-25T19:44:23.621Z,60.54
2022-11-25T19:47:14.909Z,60.37
2022-11-25T19:49:48.040Z,60.32
2022-11-25T19:52:23.150Z,60.30
2022-11-25T19:54:55.659Z,60.38
2022-11-25T19:57:30.357Z,60.38
2022-11-25T20:00:02.687Z,60.35
2022-11-25T20:02:35.263Z,60.31
2022-11-25T20:05:11.226Z,60.27
2022-11-25T20:07:44.892Z,60.21
2022-11-25T20:10:23.099Z,60.26
2022-11-25T20:12:56.435Z,60.33
2022-11-25T20:15:38.178Z,60.30
2022-11-25T20:18:18.200Z,60.41
2022-11-25T20:20:56.817Z,60.27
2022-11-25T20:23:31.032Z,60.23
2022-11-25T20:26:05.533Z,60.28
2022-11-25T20:28:41.035Z,60.32
2022-11-25T20:31:16.263Z,60.34
2022-11-25T20:33:49.864Z,60.36
2022-11-25T20:36:29.114Z,60.49
2022-11-25T20:39:03.316Z,60.63
2022-11-25T20:41:37.761Z,60.46
2022-11-25T20:44:12.507Z,60.29
2022-11-25T20:46:45.793Z,60.01
2022-11-25T20:49:25.834Z,60.19
2022-11-25T20:51:58.746Z,60.30
2022-11-25T20:54:36.543Z,60.20
2022-11-25T20:57:13.136Z,60.06
2022-11-25T20:59:46.112Z,60.03
2022-11-25T21:02:24.647Z,60.43
2022-11-25T21:04:57.981Z,60.55
2022-11-25T21:07:30.063Z,60.53
2022-11-25T21:10:04.954Z,60.45
2022-11-25T21:12:38.808Z,60.53
2022-11-25T21:15:21.249Z,60.33
2022-11-25T21:17:54.144Z,60.27
2022-11-25T21:20:28.498Z,60.49
2022-11-25T21:23:05.754Z,60.22
2022-11-25T21:25:39.092Z,60.20
2022-11-25T21:28:13.060Z,60.19
2022-11-25T21:30:46.913Z,60.40
2022-11-25T21:33:21.777Z,60.30
2022-11-25T21:35:57.826Z,60.31
2022-11-25T21:38:34.738Z,60.30
2022-11-25T21:41:08.312Z,60.41
2022-11-25T21:43:45.719Z,60.46
2022-11-25T21:46:25.464Z,60.47
2022-11-25T21:48:58.808Z,60.43
2022-11-25T21:51:33.244Z,60.48
2022-11-25T21:54:06.435Z,60.49
2022-11-25T21:56:39.051Z,60.29
2022-11-25T21:59:18.445Z,60.27
2022-11-25T22:01:51.170Z,60.22
2022-11-25T22:04:25.753Z,60.36
2022-11-25T22:07:01.922Z,60.30
2022-11-25T22:09:35.162Z,60.04
2022-11-25T22:12:11.556Z,59.96
2022-11-25T22:14:43.871Z,60.17
2022-11-25T22:17:20.553Z,60.28
2022-11-25T22:19:55.931Z,59.88
2022-11-25T22:22:32.209Z,60.15
2022-11-25T22:25:06.598Z,60.38
2022-11-25T22:27:40.664Z,60.18
2022-11-25T22:30:20.164Z,60.20
2022-11-25T22:32:59.890Z,60.34
2022-11-25T22:35:32.982Z,60.25
2022-11-25T22:38:12.146Z,60.21
2022-11-25T22:40:47.996Z,60.33
2022-11-25T22:43:22.372Z,60.52
2022-11-25T22:45:57.206Z,60.48
2022-11-25T22:48:35.478Z,60.57
2022-11-25T22:51:11.325Z,60.30
2022-11-25T22:53:43.982Z,60.24
2022-11-25T22:56:20.328Z,60.33
2022-11-25T22:58:58.934Z,60.49
2022-11-25T23:01:33.145Z,60.47
2022-11-25T23:04:08.937Z,60.50
2022-11-25T23:06:41.568Z,60.26
2022-11-25T23:09:17.961Z,60.40
2022-11-25T23:11:51.404Z,60.41
2022-11-25T23:14:27.726Z,60.58
2022-11-25T23:17:03.373Z,60.70
2022-11-25T23:19:35.980Z,60.68
2022-11-25T23:22:14.072Z,60.62
2022-11-25T23:24:48.412Z,60.21
2022-11-25T23:27:21.718Z,60.07
2022-11-25T23:29:59.376Z,60.21
2022-11-25T23:32:34.691Z,60.44
2022-11-25T23:35:15.843Z,60.68
2022-11-25T23:37:54.349Z,60.78
2022-11-25T23:40:28.314Z,60.79
2022-11-25T23:43:03.232Z,60.91
2022-11-25T23:45:36.295Z,60.80
2022-11-25T23:48:12.664Z,60.88
2022-11-25T23:50:46.170Z,60.95
2022-11-25T23:53:25.529Z,60.97
2022-11-25T23:55:57.900Z,60.71
2022-11-25T23:58:31.118Z,60.92
